Time;durP1;ratioP1;P1;durP2;ratioP2;P2;SDS_P1;SDS_P2;PMS_P1;PMS_P2;Temp;Humidity;BMP_temperature;BMP_pressure;BME280_temperature;BME280_humidity;BME280_pressure;Samples;Min_cycle;Max_cycle;Signal;HPM_P1;HPM_P2
2022/05/01 00:01:07;;;;;;;17.02;11.32;;;;;;;;;;5137546;27;20540;-88
2022/05/01 00:03:54;;;;;;;19.02;11.48;;;;;;;;;;5122307;27;20076;-88
2022/05/01 00:06:38;;;;;;;16.45;12.00;;;;;;;;;;5122277;27;20033;-88
2022/05/01 00:09:23;;;;;;;19.52;12.00;;;;;;;;;;5137086;27;20099;-88
2022/05/01 00:12:08;;;;;;;19.05;12.32;;;;;;;;;;5137518;27;20103;-88
2022/05/01 00:14:53;;;;;;;16.30;11.70;;;;;;;;;;5121983;27;20494;-88
2022/05/01 00:17:38;;;;;;;19.88;12.32;;;;;;;;;;5121934;27;20160;-88
2022/05/01 00:20:23;;;;;;;18.55;12.45;;;;;;;;;;5106997;27;20540;-89
2022/05/01 00:23:08;;;;;;;15.82;11.55;;;;;;;;;;5122004;27;20093;-88
2022/05/01 00:25:53;;;;;;;17.73;12.30;;;;;;;;;;5107627;27;20046;-88
2022/05/01 00:28:38;;;;;;;21.23;11.70;;;;;;;;;;5137383;27;20436;-88
2022/05/01 00:31:22;;;;;;;17.10;12.60;;;;;;;;;;5121283;27;20075;-88
2022/05/01 00:37:13;;;;;;;18.83;12.48;;;;;;;;;;5137372;27;20463;-88
2022/05/01 00:39:58;;;;;;;17.90;12.23;;;;;;;;;;5121424;27;20062;-88
2022/05/01 00:42:45;;;;;;;17.73;11.63;;;;;;;;;;5121501;27;20033;-88
2022/05/01 00:45:30;;;;;;;15.68;12.07;;;;;;;;;;5121081;27;20084;-88
2022/05/01 00:48:15;;;;;;;18.30;11.93;;;;;;;;;;5121536;27;20042;-88
2022/05/01 00:51:00;;;;;;;19.50;12.07;;;;;;;;;;5136818;27;20527;-88
2022/05/01 00:53:45;;;;;;;17.10;12.55;;;;;;;;;;5121280;27;20034;-88
2022/05/01 00:56:33;;;;;;;21.67;12.70;;;;;;;;;;5120754;27;20047;-88
2022/05/01 00:59:17;;;;;;;21.20;12.32;;;;;;;;;;5121026;27;20394;-89
2022/05/01 01:02:03;;;;;;;19.73;12.90;;;;;;;;;;5121193;27;20539;-88
2022/05/01 01:04:48;;;;;;;15.30;12.00;;;;;;;;;;5121058;27;20038;-88
2022/05/01 01:07:34;;;;;;;16.42;11.65;;;;;;;;;;5106359;27;20087;-88
2022/05/01 01:10:19;;;;;;;18.92;12.55;;;;;;;;;;5136174;27;20042;-90
2022/05/01 01:13:03;;;;;;;21.08;14.80;;;;;;;;;;5136420;27;20143;-88
2022/05/01 01:15:48;;;;;;;17.58;13.15;;;;;;;;;;5120849;27;20038;-88
2022/05/01 01:18:33;;;;;;;19.33;14.05;;;;;;;;;;5120323;27;20108;-88
2022/05/01 01:21:20;;;;;;;22.05;13.75;;;;;;;;;;5120764;27;20051;-87
2022/05/01 01:24:11;;;;;;;20.10;13.18;;;;;;;;;;5120816;27;20069;-88
2022/05/01 01:26:57;;;;;;;19.77;12.68;;;;;;;;;;5120623;27;20042;-88
2022/05/01 01:32:45;;;;;;;19.90;13.03;;;;;;;;;;5136223;27;20046;-89
2022/05/01 01:35:33;;;;;;;18.58;13.00;;;;;;;;;;5105919;27;20268;-88
2022/05/01 01:38:18;;;;;;;22.73;15.23;;;;;;;;;;5120284;27;20063;-88
2022/05/01 01:41:08;;;;;;;20.80;14.00;;;;;;;;;;5135962;27;20037;-89
2022/05/01 01:43:53;;;;;;;24.80;14.43;;;;;;;;;;5136557;27;20525;-89
2022/05/01 01:46:39;;;;;;;18.67;13.57;;;;;;;;;;5126382;27;20037;-88
2022/05/01 01:49:23;;;;;;;20.13;13.32;;;;;;;;;;5124046;27;20085;-89
2022/05/01 01:52:08;;;;;;;18.83;13.02;;;;;;;;;;5105869;27;20038;-88
2022/05/01 01:54:53;;;;;;;20.60;14.07;;;;;;;;;;5120054;27;20399;-88
2022/05/01 01:57:37;;;;;;;20.60;13.52;;;;;;;;;;5119424;27;20079;-88
2022/05/01 02:00:22;;;;;;;22.13;13.88;;;;;;;;;;5119999;27;20087;-88
2022/05/01 02:03:09;;;;;;;28.17;15.25;;;;;;;;;;5119825;27;20034;-87
2022/05/01 02:05:54;;;;;;;24.17;15.02;;;;;;;;;;5119776;27;20076;-88
2022/05/01 02:08:40;;;;;;;24.70;15.65;;;;;;;;;;5105156;27;20092;-87
2022/05/01 02:11:25;;;;;;;26.30;14.88;;;;;;;;;;5119339;27;20193;-91
2022/05/01 02:14:12;;;;;;;23.13;15.27;;;;;;;;;;5120999;27;20134;-88
2022/05/01 02:16:57;;;;;;;21.10;13.70;;;;;;;;;;5154981;27;20038;-88
2022/05/01 02:19:42;;;;;;;21.92;14.07;;;;;;;;;;5139361;27;20496;-87
2022/05/01 02:22:27;;;;;;;20.55;14.10;;;;;;;;;;5139955;27;20090;-90
2022/05/01 02:25:11;;;;;;;22.33;14.48;;;;;;;;;;5140264;27;20038;-88
2022/05/01 02:27:56;;;;;;;23.83;14.65;;;;;;;;;;5140182;27;20462;-88
2022/05/01 02:30:40;;;;;;;23.15;15.13;;;;;;;;;;5139808;27;20095;-88
2022/05/01 02:33:25;;;;;;;26.85;14.80;;;;;;;;;;5140023;27;20079;-88
2022/05/01 02:36:10;;;;;;;24.98;14.63;;;;;;;;;;5140039;27;20037;-88
2022/05/01 02:38:55;;;;;;;18.98;13.48;;;;;;;;;;5139827;27;20504;-88
2022/05/01 02:41:40;;;;;;;22.27;13.32;;;;;;;;;;5125103;27;20077;-88
2022/05/01 02:44:24;;;;;;;20.60;14.27;;;;;;;;;;5125435;27;20042;-88
2022/05/01 02:47:09;;;;;;;23.80;15.10;;;;;;;;;;5139749;27;20493;-88
2022/05/01 02:49:54;;;;;;;21.15;15.15;;;;;;;;;;5139350;27;20150;-88
2022/05/01 02:52:38;;;;;;;19.25;14.00;;;;;;;;;;5139291;27;20069;-88
2022/05/01 02:55:23;;;;;;;24.13;13.93;;;;;;;;;;5139631;27;20113;-88
2022/05/01 02:58:07;;;;;;;22.42;14.30;;;;;;;;;;5139467;27;20538;-88
2022/05/01 03:00:52;;;;;;;17.75;13.05;;;;;;;;;;5139099;27;20083;-87
2022/05/01 03:03:36;;;;;;;18.83;13.23;;;;;;;;;;5124575;27;20086;-88
2022/05/01 03:06:23;;;;;;;22.88;14.98;;;;;;;;;;5139359;27;20095;-88
2022/05/01 03:09:08;;;;;;;24.33;16.00;;;;;;;;;;5124808;27;20110;-88
2022/05/01 03:11:52;;;;;;;22.08;15.65;;;;;;;;;;5154596;27;20561;-88
2022/05/01 03:14:37;;;;;;;24.80;16.25;;;;;;;;;;5138752;27;20117;-88
2022/05/01 03:17:21;;;;;;;23.73;15.77;;;;;;;;;;5139130;27;20454;-87
2022/05/01 03:23:10;;;;;;;29.38;17.33;;;;;;;;;;5154776;27;20093;-87
2022/05/01 03:25:54;;;;;;;31.30;18.70;;;;;;;;;;5138678;27;20531;-87
2022/05/01 03:28:39;;;;;;;27.83;17.45;;;;;;;;;;5138549;27;20083;-88
2022/05/01 03:31:27;;;;;;;27.95;18.30;;;;;;;;;;5138604;27;20034;-87
2022/05/01 03:34:12;;;;;;;28.48;16.92;;;;;;;;;;5138825;27;20113;-88
2022/05/01 03:36:56;;;;;;;28.08;17.92;;;;;;;;;;5138408;27;20090;-87
2022/05/01 03:39:41;;;;;;;29.65;18.13;;;;;;;;;;5153935;27;20183;-88
2022/05/01 03:42:25;;;;;;;27.83;18.00;;;;;;;;;;5124314;27;20041;-87
2022/05/01 03:45:10;;;;;;;26.35;17.33;;;;;;;;;;5154202;27;20045;-87
2022/05/01 03:47:55;;;;;;;21.40;15.73;;;;;;;;;;5138346;27;20064;-87
2022/05/01 03:50:40;;;;;;;27.27;16.33;;;;;;;;;;5138221;27;20393;-87
2022/05/01 03:53:25;;;;;;;27.20;18.52;;;;;;;;;;5138561;27;20034;-87
2022/05/01 03:56:10;;;;;;;25.80;17.25;;;;;;;;;;5138693;27;20033;-88
2022/05/01 03:58:55;;;;;;;27.38;17.15;;;;;;;;;;5153775;27;20041;-87
2022/05/01 04:01:39;;;;;;;25.98;15.35;;;;;;;;;;5138156;27;20084;-88
2022/05/01 04:04:24;;;;;;;25.83;15.93;;;;;;;;;;5138520;27;20144;-87
2022/05/01 04:07:08;;;;;;;24.27;16.15;;;;;;;;;;5126710;27;20042;-87
2022/05/01 04:09:52;;;;;;;28.80;16.98;;;;;;;;;;5140741;27;20103;-88
2022/05/01 04:12:38;;;;;;;21.40;14.65;;;;;;;;;;5142211;27;20087;-87
2022/05/01 04:15:23;;;;;;;22.20;15.63;;;;;;;;;;5140969;27;20176;-86
2022/05/01 04:18:08;;;;;;;25.90;15.48;;;;;;;;;;5141763;27;20049;-87
2022/05/01 04:20:53;;;;;;;27.27;16.02;;;;;;;;;;5140100;27;20509;-87
2022/05/01 04:23:38;;;;;;;24.13;16.92;;;;;;;;;;5139500;27;20488;-87
2022/05/01 04:26:23;;;;;;;24.42;16.92;;;;;;;;;;5154529;27;20038;-88
2022/05/01 04:32:11;;;;;;;23.95;15.85;;;;;;;;;;5154030;27;20134;-87
2022/05/01 04:34:57;;;;;;;27.35;16.17;;;;;;;;;;5123519;27;20203;-87
2022/05/01 04:37:42;;;;;;;22.98;15.85;;;;;;;;;;5137765;27;20525;-89
2022/05/01 04:40:31;;;;;;;23.52;15.23;;;;;;;;;;5123843;27;20038;-87
2022/05/01 04:43:17;;;;;;;21.02;14.70;;;;;;;;;;5139011;27;20038;-87
2022/05/01 04:46:02;;;;;;;23.67;16.05;;;;;;;;;;5157303;27;20054;-88
2022/05/01 04:48:47;;;;;;;26.55;17.73;;;;;;;;;;5141598;27;20073;-87
2022/05/01 04:51:31;;;;;;;25.77;15.85;;;;;;;;;;5141928;27;20498;-87
2022/05/01 04:54:16;;;;;;;26.00;17.15;;;;;;;;;;5157751;27;20038;-87
2022/05/01 04:57:09;;;;;;;26.85;17.80;;;;;;;;;;5141430;27;20454;-88
2022/05/01 04:59:54;;;;;;;29.67;18.73;;;;;;;;;;5141323;27;20092;-88
2022/05/01 05:02:39;;;;;;;27.85;18.05;;;;;;;;;;5141797;27;20041;-87
2022/05/01 05:05:32;;;;;;;30.13;19.05;;;;;;;;;;5127286;27;20122;-88
2022/05/01 05:11:20;;;;;;;29.17;18.33;;;;;;;;;;5157395;27;20079;-87
2022/05/01 05:14:05;;;;;;;25.77;18.00;;;;;;;;;;5141119;27;20033;-88
2022/05/01 05:16:51;;;;;;;29.17;20.00;;;;;;;;;;5141021;27;20041;-88
2022/05/01 05:19:36;;;;;;;28.95;19.67;;;4.70;99.90;;;;;;5138721;27;20509;-87
2022/05/01 05:22:21;;;;;;;30.20;19.90;;;;;;;;;;5141555;27;20038;-89
2022/05/01 05:25:09;;;;;;;26.92;18.35;;;;;;;;;;5140878;27;20038;-88
2022/05/01 05:27:53;;;;;;;26.05;18.10;;;;;;;;;;5140876;27;20515;-88
2022/05/01 05:30:40;;;;;;;27.30;18.17;;;;;;;;;;5142088;27;20494;-88
2022/05/01 05:33:25;;;;;;;27.42;18.70;;;;;;;;;;5141406;27;20088;-88
2022/05/01 05:36:09;;;;;;;28.92;18.10;;;;;;;;;;5145247;27;20041;-87
2022/05/01 05:38:54;;;;;;;23.88;17.23;;;;;;;;;;5126261;27;20451;-88
2022/05/01 05:41:39;;;;;;;29.50;18.27;;;;;;;;;;5156661;27;20103;-88
2022/05/01 05:44:24;;;;;;;26.98;18.15;;;;;;;;;;5140995;27;20069;-88
2022/05/01 05:47:09;;;;;;;23.23;16.90;;;;;;;;;;5140544;27;20542;-88
2022/05/01 05:49:54;;;;;;;22.63;16.02;;;;;;;;;;5156028;27;20081;-88
2022/05/01 05:52:39;;;;;;;25.38;15.90;;;;;;;;;;5140680;27;20033;-88
2022/05/01 05:55:23;;;;;;;24.00;16.75;;;;;;;;;;5139769;27;20037;-89
2022/05/01 05:58:08;;;;;;;26.05;15.52;;;;;;;;;;5140246;27;20082;-88
2022/05/01 06:00:54;;;;;;;21.08;16.17;;;;;;;;;;5125830;27;20129;-89
2022/05/01 06:03:43;;;;;;;22.77;15.43;;;;;;;;;;5140624;27;20485;-89
2022/05/01 06:06:28;;;;;;;22.50;16.08;;;;;;;;;;5140721;27;20155;-88
2022/05/01 06:09:15;;;;;;;21.13;15.32;;;;;;;;;;5155734;27;20067;-88
2022/05/01 06:12:00;;;;;;;20.42;13.15;;;;;;;;;;5140099;27;20078;-88
2022/05/01 06:14:47;;;;;;;19.95;14.25;;;;;;;;;;5140374;27;20394;-88
2022/05/01 06:17:32;;;;;;;16.85;12.27;;;;;;;;;;5140486;27;20041;-88
2022/05/01 06:20:17;;;;;;;18.20;13.20;;;;;;;;;;5139998;27;20543;-88
2022/05/01 06:23:04;;;;;;;19.85;14.45;;;;;;;;;;5140064;27;20034;-88
2022/05/01 06:25:49;;;;;;;23.20;14.68;;;;;;;;;;5126293;27;20033;-89
2022/05/01 06:28:33;;;;;;;18.25;13.38;;;;;;;;;;5140231;27;20163;-88
2022/05/01 06:31:18;;;;;;;15.88;12.73;;;;;;;;;;5139833;27;20057;-88
2022/05/01 06:34:12;;;;;;;16.67;12.13;;;;;;;;;;5155343;27;20122;-89
2022/05/01 06:36:56;;;;;;;17.70;11.98;;;;;;;;;;5139672;27;20537;-90
2022/05/01 06:39:44;;;;;;;17.50;12.73;;;;;;;;;;5139819;27;20037;-88
2022/05/01 06:42:32;;;;;;;17.63;12.20;;;;;;;;;;5139893;27;20094;-89
2022/05/01 06:45:17;;;;;;;17.65;12.48;;;;;;;;;;5155150;27;20049;-88
2022/05/01 06:48:02;;;;;;;15.63;11.23;;;;;;;;;;5139582;27;20042;-88
2022/05/01 06:50:47;;;;;;;14.35;10.50;;;;;;;;;;5155430;27;20038;-88
2022/05/01 06:53:32;;;;;;;12.52;10.35;;;;;;;;;;5155448;27;20036;-89
2022/05/01 06:56:16;;;;;;;14.88;10.00;;;;;;;;;;5139333;27;20033;-89
2022/05/01 06:59:02;;;;;;;13.40;9.00;;;;;;;;;;5124710;27;20046;-88
2022/05/01 07:01:47;;;;;;;13.98;8.05;;;;;;;;;;5139511;27;20440;-90
2022/05/01 07:04:32;;;;;;;9.90;6.63;;;;;;;;;;5139439;27;20038;-88
2022/05/01 07:07:16;;;;;;;10.77;7.05;;;;;;;;;;5138907;27;20041;-88
2022/05/01 07:10:01;;;;;;;8.73;6.15;;;;;;;;;;5139141;27;20091;-88
2022/05/01 07:12:45;;;;;;;6.70;5.53;;;;;;;;;;5139315;27;20528;-88
2022/05/01 07:15:30;;;;;;;10.32;5.47;;;;;;;;;;5139212;27;20038;-88
2022/05/01 07:18:15;;;;;;;12.27;6.05;;;;;;;;;;5138818;27;20045;-89
2022/05/01 07:20:59;;;;;;;7.65;5.78;;;;;;;;;;5133320;27;20394;-88
2022/05/01 07:23:44;;;;;;;8.93;5.80;;;;;;;;;;5133079;27;20080;-89
2022/05/01 07:26:33;;;;;;;12.60;6.18;;;;;;;;;;5132941;27;20482;-88
2022/05/01 07:29:18;;;;;;;7.85;6.05;;;;;;;;;;5132545;27;20041;-88
2022/05/01 07:32:03;;;;;;;11.73;6.25;;;;;;;;;;5133304;27;20042;-88
2022/05/01 07:34:48;;;;;;;9.00;5.75;;;;;;;;;;5133234;27;20054;-89
2022/05/01 07:37:33;;;;;;;10.80;6.13;;;;;;;;;;5133900;27;20035;-88
2022/05/01 07:40:18;;;;;;;11.48;5.47;;;;;;;;;;5132716;27;20130;-88
2022/05/01 07:43:03;;;;;;;8.90;5.93;;;;;;;;;;5132908;27;20034;-88
2022/05/01 07:45:48;;;;;;;8.27;5.75;;;;;;;;;;5132992;27;20070;-88
2022/05/01 07:48:33;;;;;;;10.68;6.63;;;;;;;;;;5133008;27;20045;-88
2022/05/01 07:51:25;;;;;;;10.32;6.20;;;;;;;;;;5132498;27;20031;-89
2022/05/01 07:54:10;;;;;;;8.95;6.38;;;;;;;;;;5133885;27;20039;-89
2022/05/01 07:56:54;;;;;;;8.05;5.55;;;;;;;;;;5132947;28;20054;-88
2022/05/01 07:59:39;;;;;;;6.50;5.32;;;;;;;;;;5133889;28;20608;-89
2022/05/01 08:02:24;;;;;;;7.32;4.57;;;;;;;;;;5133679;28;20502;-88
2022/05/01 08:05:08;;;;;;;6.78;4.43;;;;;;;;;;5132430;28;20042;-87
2022/05/01 08:07:53;;;;;;;8.60;5.20;;;;;;;;;;5133134;28;20456;-88
2022/05/01 08:10:37;;;;;;;7.18;4.30;;;;;;;;;;5132927;28;20038;-88
2022/05/01 08:13:25;;;;;;;8.02;5.07;;;;;;;;;;5132334;28;20035;-88
2022/05/01 08:16:10;;;;;;;4.97;3.92;;;;;;;;;;5132063;28;20147;-89
2022/05/01 08:21:58;;;;;;;6.07;4.18;;;;;;;;;;5138402;27;20059;-88
2022/05/01 08:24:43;;;;;;;7.47;3.80;;;;;;;;;;5137048;27;20073;-87
2022/05/01 08:27:27;;;;;;;5.72;4.25;;;;;;;;;;5137708;27;20394;-90
2022/05/01 08:30:12;;;;;;;7.40;4.47;;;;;;;;;;5136465;27;20399;-88
2022/05/01 08:32:57;;;;;;;7.43;4.38;;;;;;;;;;5136737;27;20069;-88
2022/05/01 08:35:42;;;;;;;5.78;4.05;;;;;;;;;;5122005;27;20535;-88
2022/05/01 08:38:26;;;;;;;8.45;4.63;;;;;;;;;;5137049;27;20042;-88
2022/05/01 08:41:11;;;;;;;5.55;4.03;;;;;;;;;;5136174;27;20042;-89
2022/05/01 08:44:00;;;;;;;6.60;4.40;;;;;;;;;;5136729;27;20099;-88
2022/05/01 08:47:05;;;;;;;8.70;4.60;;;;;;;;;;5136924;27;20054;-88
2022/05/01 08:49:55;;;;;;;7.13;4.45;;;;;;;;;;5136653;27;20041;-88
2022/05/01 08:52:40;;;;;;;5.78;4.43;;;;;;;;;;5137193;27;20034;-88
2022/05/01 08:55:25;;;;;;;8.90;4.20;;;;;;;;;;5136742;27;20062;-88
2022/05/01 08:58:09;;;;;;;8.55;4.43;;;;;;;;;;5136015;27;20132;-88
2022/05/01 09:00:54;;;;;;;6.25;4.00;;;;;;;;;;5136049;27;20506;-88
2022/05/01 09:03:39;;;;;;;10.00;4.40;;;;;;;;;;5136076;27;20050;-88
2022/05/01 09:06:24;;;;;;;5.65;4.35;;;;;;;;;;5135947;27;20034;-90
2022/05/01 09:09:13;;;;;;;7.70;4.68;;;;;;;;;;5136296;27;20050;-88
2022/05/01 09:15:01;;;;;;;6.28;4.25;;;;;;;;;;5138827;27;20037;-88
2022/05/01 09:17:59;;;;;;;6.05;4.20;;;;;;;;;;5146014;27;20486;-88
2022/05/01 09:21:02;;;;;;;5.35;3.53;;;;;;;;;;5148193;27;20050;-88
2022/05/01 09:23:48;;;;;;;6.18;4.05;;;;;;;;;;5145154;27;20046;-88
2022/05/01 09:26:37;;;;;;;6.68;4.00;;;;;;;;;;5150214;27;20048;-87
2022/05/01 09:29:25;;;;;;;7.22;3.88;;;13.70;97.00;;;;;;5156373;27;20051;-88
2022/05/01 09:32:10;;;;;;;5.10;3.42;;;;;;;;;;5139584;27;20026;-90
2022/05/01 09:34:57;;;;;;;5.57;3.80;;;;;;;;;;5148253;27;20058;-90
2022/05/01 09:37:42;;;;;;;5.47;4.05;;;;;;;;;;5139544;27;20034;-88
2022/05/01 09:40:30;;;;;;;6.28;3.60;;;;;;;;;;5139140;27;20095;-88
2022/05/01 09:43:34;;;;;;;4.95;3.75;;;;;;;;;;5138956;27;20034;-88
2022/05/01 09:46:19;;;;;;;4.85;3.53;;;;;;;;;;5136631;27;20387;-90
2022/05/01 09:49:23;;;;;;;6.90;3.67;;;;;;;;;;5136228;27;20494;-89
2022/05/01 09:52:07;;;;;;;6.75;4.07;;;;;;;;;;5136181;27;20118;-88
2022/05/01 09:55:03;;;;;;;6.75;4.13;;;;;;;;;;5135390;27;20034;-88
2022/05/01 09:57:47;;;;;;;6.13;3.78;;;;;;;;;;5134889;27;20038;-88
2022/05/01 10:00:36;;;;;;;7.32;3.85;;;;;;;;;;5134760;27;20042;-89
2022/05/01 10:03:22;;;;;;;7.78;3.97;;;;;;;;;;5134290;27;20398;-89
2022/05/01 10:06:09;;;;;;;6.15;3.70;;;;;;;;;;5134757;27;20073;-89
2022/05/01 10:08:55;;;;;;;6.70;3.83;;;;;;;;;;5134600;27;20399;-89
2022/05/01 10:11:42;;;;;;;6.05;3.85;;;;;;;;;;5134280;27;20054;-89
2022/05/01 10:14:28;;;;;;;7.55;3.95;;;;;;;;;;5134312;27;20115;-89
2022/05/01 10:17:12;;;;;;;5.93;3.72;;;;;;;;;;5135627;27;20079;-88
2022/05/01 10:19:57;;;;;;;7.18;3.80;;;;;;;;;;5134259;27;20510;-89
2022/05/01 10:22:42;;;;;;;5.90;3.70;;;;;;;;;;5135014;27;20305;-88
2022/05/01 10:25:27;;;;;;;6.90;3.55;;;;;;;;;;5134989;27;20038;-88
2022/05/01 10:28:23;;;;;;;4.85;2.90;;;;;;;;;;5134412;27;20038;-89
2022/05/01 10:34:44;;;;;;;5.70;3.03;;;;;;;;;;5134713;27;20490;-90
2022/05/01 10:37:32;;;;;;;6.72;3.28;;;;;;;;;;5133618;27;20189;-89
2022/05/01 10:40:16;;;;;;;6.03;3.20;;;;;;;;;;5134142;27;20046;-90
2022/05/01 10:43:24;;;;;;;5.20;3.13;;;;;;;;;;5133766;27;20038;-88
2022/05/01 10:46:18;;;;;;;5.13;3.40;;;;;;;;;;5134037;27;20042;-88
2022/05/01 10:49:06;;;;;;;5.53;3.28;;;;;;;;;;5133894;27;20042;-88
2022/05/01 10:51:52;;;;;;;4.88;3.28;;;;;;;;;;5134752;27;20402;-88
2022/05/01 10:54:38;;;;;;;6.32;3.08;;;;;;;;;;5119288;27;20483;-88
2022/05/01 10:57:28;;;;;;;5.35;3.55;;;;;;;;;;5133691;27;20099;-91
2022/05/01 11:00:15;;;;;;;5.28;2.70;;;;;;;;;;5133628;27;20464;-89
2022/05/01 11:03:20;;;;;;;5.80;2.92;;;;;;;;;;5133838;27;20038;-89
2022/05/01 11:06:05;;;;;;;4.32;2.97;;;;;;;;;;5133954;27;20038;-89
2022/05/01 11:08:50;;;;;;;7.47;3.05;;;;;;;;;;5132939;27;20041;-92
2022/05/01 11:11:36;;;;;;;4.53;3.17;;;;;;;;;;5133072;27;20078;-89
2022/05/01 11:14:40;;;;;;;5.78;3.08;;;16.60;75.60;;;;;;5133486;27;20074;-89
2022/05/01 11:17:34;;;;;;;5.25;3.15;;;;;;;;;;5133386;27;20030;-89
2022/05/01 11:20:24;;;;;;;4.35;2.72;;;;;;;;;;5133576;27;20080;-88
2022/05/01 11:23:31;;;;;;;3.75;2.45;;;;;;;;;;5134272;27;20486;-89
2022/05/01 11:26:20;;;;;;;5.00;2.70;;;;;;;;;;5133247;27;20034;-89
2022/05/01 11:29:17;;;;;;;6.97;3.33;;;;;;;;;;5133197;27;20034;-89
2022/05/01 11:32:17;;;;;;;3.72;2.53;;;;;;;;;;5133105;27;20073;-88
2022/05/01 11:35:03;;;;;;;5.45;2.60;;;;;;;;;;5134340;27;20033;-89
2022/05/01 11:37:49;;;;;;;6.00;2.50;;;;;;;;;;5132696;27;20092;-89
2022/05/01 11:40:34;;;;;;;7.07;2.80;;;;;;;;;;5132327;27;20215;-89
2022/05/01 11:43:22;;;;;;;4.47;2.80;;;;;;;;;;5132917;27;20105;-90
2022/05/01 11:46:17;;;;;;;5.97;3.28;;;;;;;;;;5133289;27;20069;-89
2022/05/01 11:49:05;;;;;;;7.43;3.45;;;;;;;;;;5132837;27;20101;-89
2022/05/01 11:51:52;;;;;;;6.88;3.50;;;;;;;;;;5133497;27;20081;-88
2022/05/01 11:54:40;;;;;;;5.68;3.10;;;;;;;;;;5131859;27;20037;-89
2022/05/01 12:03:37;;;;;;;5.47;3.33;;;;;;;;;;5133257;28;19918;-91
2022/05/01 12:06:25;;;;;;;7.78;3.72;;;;;;;;;;5132603;28;20042;-88
2022/05/01 12:09:09;;;;;;;6.65;3.40;;;;;;;;;;5132921;28;20156;-88
2022/05/01 12:11:54;;;;;;;3.70;2.72;;;;;;;;;;5132328;28;20045;-88
2022/05/01 12:14:39;;;;;;;5.68;3.00;;;;;;;;;;5133173;28;20116;-88
2022/05/01 12:17:24;;;;;;;7.75;3.40;;;;;;;;;;5132583;28;20044;-88
2022/05/01 12:20:09;;;;;;;4.90;3.38;;;;;;;;;;5132711;28;20101;-88
2022/05/01 12:22:54;;;;;;;4.32;2.83;;;;;;;;;;5117688;28;20490;-89
2022/05/01 12:25:41;;;;;;;8.02;3.53;;;;;;;;;;5132264;28;20049;-90
2022/05/01 12:28:27;;;;;;;5.70;3.20;;;;;;;;;;5132584;28;20080;-89
2022/05/01 12:31:12;;;;;;;5.22;3.20;;;;;;;;;;5118292;28;20038;-89
2022/05/01 12:34:00;;;;;;;4.85;3.00;;;;;;;;;;5132108;28;20410;-88
2022/05/01 12:36:52;;;;;;;6.82;3.60;;;;;;;;;;5132272;28;20452;-88
2022/05/01 12:39:36;;;;;;;6.57;3.50;;;;;;;;;;5132499;28;20050;-89
2022/05/01 12:45:34;;;;;;;4.95;3.35;;;;;;;;;;5133626;28;20089;-88
2022/05/01 12:48:19;;;;;;;;;;;16.30;71.10;;;;;;5133078;28;20042;-90
2022/05/01 12:51:04;;;;;;;7.22;2.55;;;;;;;;;;5132175;28;19921;-88
2022/05/01 12:53:48;;;;;;;6.95;3.40;;;;;;;;;;5133179;28;20031;-90
2022/05/01 12:56:34;;;;;;;5.00;2.63;;;;;;;;;;5141687;28;20042;-89
2022/05/01 12:59:27;;;;;;;5.20;3.28;;;;;;;;;;5137206;28;20402;-88
2022/05/01 13:02:20;;;;;;;5.20;3.20;;;;;;;;;;5133581;28;20399;-89
2022/05/01 13:05:07;;;;;;;6.55;3.25;;;;;;;;;;5133976;27;20540;-89
2022/05/01 13:07:55;;;;;;;5.25;3.03;;;;;;;;;;5136617;27;20559;-89
2022/05/01 13:10:39;;;;;;;4.65;2.92;;;;;;;;;;5135880;27;20042;-88
2022/05/01 13:13:24;;;;;;;8.25;3.42;;;;;;;;;;5121323;27;20176;-88
2022/05/01 13:16:12;;;;;;;4.10;3.00;;;;;;;;;;5136125;27;20080;-88
2022/05/01 13:18:57;;;;;;;4.97;2.90;;;;;;;;;;5135082;27;20415;-88
2022/05/01 13:21:42;;;;;;;4.00;2.80;;;;;;;;;;5141730;27;20045;-91
2022/05/01 13:24:31;;;;;;;6.50;3.40;;;;;;;;;;5142062;27;20086;-89
2022/05/01 13:27:16;;;;;;;4.43;3.25;;;;;;;;;;5141538;27;20037;-88
2022/05/01 13:30:01;;;;;;;6.57;2.90;;;;;;;;;;5141273;27;20402;-88
2022/05/01 13:32:46;;;;;;;6.63;3.30;;;;;;;;;;5141076;27;20042;-90
2022/05/01 13:35:33;;;;;;;9.02;3.22;;;;;;;;;;5141398;27;20034;-89
2022/05/01 13:38:18;;;;;;;5.78;2.72;;;;;;;;;;5141294;27;20041;-89
2022/05/01 13:47:10;;;;;;;4.30;3.10;;;;;;;;;;5156404;27;20505;-89
2022/05/01 13:49:55;;;;;;;7.72;3.20;;;;;;;;;;5140988;27;20061;-88
2022/05/01 13:52:42;;;;;;;6.20;3.40;;;;;;;;;;5141112;27;20091;-88
2022/05/01 13:55:28;;;;;;;5.85;2.95;;;;;;;;;;5141164;27;20037;-87
2022/05/01 13:58:15;;;;;;;10.10;3.55;;;;;;;;;;5126332;27;20077;-88
2022/05/01 14:01:00;;;;;;;7.40;3.10;;;;;;;;;;5140595;27;20053;-89
2022/05/01 14:03:45;;;;;;;5.10;3.13;;;;;;;;;;5140811;27;20033;-89
2022/05/01 14:06:30;;;;;;;5.07;3.20;;;;;;;;;;5140814;27;20038;-88
2022/05/01 14:09:18;;;;;;;4.50;3.20;;;;;;;;;;5140727;27;20399;-88
2022/05/01 14:12:05;;;;;;;5.07;3.15;;;;;;;;;;5156062;27;20038;-89
2022/05/01 14:14:49;;;;;;;6.05;3.20;;;;;;;;;;5140584;27;20439;-89
2022/05/01 14:17:34;;;;;;;5.38;3.05;;;;;;;;;;5125512;27;20083;-88
2022/05/01 14:20:19;;;;;;;5.47;3.38;;;;;;;;;;5140908;27;20061;-89
2022/05/01 14:23:07;;;;;;;4.43;2.97;;;;;;;;;;5140800;27;20041;-88
2022/05/01 14:25:52;;;;;;;5.05;3.08;;;;;;;;;;5140722;27;20079;-93
2022/05/01 14:28:39;;;;;;;7.70;3.20;;;;;;;;;;5142660;27;20086;-89
2022/05/01 14:31:41;;;;;;;6.30;2.88;;;;;;;;;;5145789;27;20037;-87
2022/05/01 14:34:30;;;;;;;5.97;2.78;;;;;;;;;;5145855;27;20037;-88
2022/05/01 14:37:21;;;;;;;5.70;3.20;;;;;;;;;;5171196;27;20045;-87
2022/05/01 14:40:08;;;;;;;6.10;2.75;;;;;;;;;;5163311;27;20038;-88
2022/05/01 14:42:58;;;;;;;4.65;3.08;;;;;;;;;;5159582;27;20059;-89
2022/05/01 14:45:48;;;;;;;5.03;2.72;;;;;;;;;;5140639;27;20059;-88
2022/05/01 14:48:34;;;;;;;4.90;2.90;;;;;;;;;;5140321;27;20049;-88
2022/05/01 14:51:21;;;;;;;5.28;2.83;;;;;;;;;;5139675;27;20029;-88
2022/05/01 14:54:06;;;;;;;4.05;2.58;;;;;;;;;;5155480;27;20489;-88
2022/05/01 14:56:58;;;;;;;5.80;2.75;;;;;;;;;;5139606;27;20130;-88
2022/05/01 15:09:03;;;;;;;4.65;3.33;;;;;;;;;;5155057;27;20046;-90
2022/05/01 15:11:48;;;;;;;5.70;3.22;;;;;;;;;;5139456;27;20037;-88
2022/05/01 15:14:32;;;;;;;8.55;3.72;;;;;;;;;;5139499;27;20076;-88
2022/05/01 15:17:23;;;;;;;5.07;3.45;;;;;;;;;;5124626;27;20041;-88
2022/05/01 15:20:20;;;;;;;7.63;2.90;;;;;;;;;;5133878;27;20639;-88
2022/05/01 15:23:12;;;;;;;6.22;2.80;;;;;;;;;;5154560;27;20440;-88
2022/05/01 15:26:00;;;;;;;5.65;2.95;;;;;;;;;;5154920;27;20400;-88
2022/05/01 15:28:45;;;;;;;5.13;3.28;;;;;;;;;;5139235;27;20042;-88
2022/05/01 15:31:31;;;;;;;6.95;3.30;;;;;;;;;;5155022;27;20503;-89
2022/05/01 15:34:19;;;;;;;6.72;3.83;;;;;;;;;;5138730;27;20126;-88
2022/05/01 15:37:04;;;;;;;5.75;3.10;;;;;;;;;;5138828;27;20029;-88
2022/05/01 15:39:58;;;;;;;7.15;3.20;;;;;;;;;;5139111;27;20034;-88
2022/05/01 15:42:43;;;;;;;9.40;3.67;;;;;;;;;;5154792;27;20041;-89
2022/05/01 15:45:28;;;;;;;5.65;3.30;;;;;;;;;;5139166;27;20503;-88
2022/05/01 15:48:12;;;;;;;4.53;3.20;;;;;;;;;;5138746;27;20127;-89
2022/05/01 15:54:03;;;;;;;;;;;14.50;73.40;;;;;;5154973;27;20050;-87
2022/05/01 15:56:48;;;;;;;4.65;3.22;;;;;;;;;;5139107;27;19959;-87
2022/05/01 15:59:35;;;;;;;5.28;3.70;;;;;;;;;;5138595;27;20045;-88
2022/05/01 16:02:24;;;;;;;5.68;3.08;;;;;;;;;;5124625;27;20049;-91
2022/05/01 16:05:10;;;;;;;9.18;3.70;;;;;;;;;;5126665;27;20532;-89
2022/05/01 16:07:54;;;;;;;7.82;3.78;;;;;;;;;;5138859;27;20038;-88
2022/05/01 16:10:45;;;;;;;5.85;3.33;;;;;;;;;;5154454;27;20082;-89
2022/05/01 16:13:37;;;;;;;6.70;3.90;;;;;;;;;;5138643;27;20080;-88
2022/05/01 16:16:44;;;;;;;5.97;3.90;;;14.30;82.20;;;;;;5138381;27;20038;-88
2022/05/01 16:19:32;;;;;;;8.13;4.03;;;;;;;;;;5138013;27;20042;-88
2022/05/01 16:22:22;;;;;;;7.85;3.92;;;;;;;;;;5138238;27;20054;-88
2022/05/01 16:25:08;;;;;;;5.47;3.38;;;;;;;;;;5153897;27;20118;-89
2022/05/01 16:27:53;;;;;;;6.55;3.50;;;;;;;;;;5138582;27;20033;-87
2022/05/01 16:30:41;;;;;;;5.22;3.53;;;;;;;;;;5138536;27;20091;-88
2022/05/01 16:33:34;;;;;;;6.63;3.67;;;;;;;;;;5155389;27;20091;-88
2022/05/01 16:36:30;;;;;;;6.57;3.40;;;;;;;;;;5139034;27;20497;-88
2022/05/01 16:39:17;;;;;;;5.38;3.33;;;;;;;;;;5138804;27;20042;-88
2022/05/01 16:42:04;;;;;;;5.00;3.13;;;;;;;;;;5142366;27;20086;-88
2022/05/01 16:44:49;;;;;;;7.10;3.58;;;;;;;;;;5158124;27;20113;-88
2022/05/01 16:47:34;;;;;;;8.07;2.92;;;;;;;;;;5142559;27;20549;-88
2022/05/01 16:50:24;;;;;;;6.47;3.42;;;;;;;;;;5141863;27;20080;-90
2022/05/01 16:53:08;;;;;;;5.70;3.80;;;;;;;;;;5142143;27;20076;-88
2022/05/01 16:55:54;;;;;;;5.30;3.25;;;;;;;;;;5142108;27;20038;-90
2022/05/01 16:58:39;;;;;;;6.45;3.20;;;;;;;;;;5142031;27;20394;-88
2022/05/01 17:01:33;;;;;;;5.78;3.30;;;;;;;;;;5141669;27;20114;-91
2022/05/01 17:04:26;;;;;;;5.17;3.13;;;;;;;;;;5141592;27;20038;-88
2022/05/01 17:07:19;;;;;;;8.27;3.60;;;;;;;;;;5157652;27;20263;-89
2022/05/01 17:10:07;;;;;;;5.28;3.20;;;;;;;;;;5141788;27;20543;-89
2022/05/01 17:13:06;;;;;;;4.43;3.28;;;;;;;;;;5157421;27;20033;-88
2022/05/01 17:15:57;;;;;;;5.07;3.80;;;;;;;;;;5157189;27;20473;-88
2022/05/01 17:18:44;;;;;;;6.53;3.58;;;;;;;;;;5141419;27;20402;-90